createdAt,value
2019-01-13T00:00:33.940Z,6.50
2019-01-13T00:03:37.862Z,6.50
2019-01-13T00:06:41.776Z,6.58
2019-01-13T00:09:45.795Z,6.63
2019-01-13T00:12:49.745Z,6.65
2019-01-13T00:15:53.705Z,6.58
2019-01-13T00:18:57.673Z,6.57
2019-01-13T00:22:01.678Z,6.52
2019-01-13T00:25:06.152Z,6.55
2019-01-13T00:28:13.874Z,6.56
2019-01-13T00:31:17.826Z,6.60
2019-01-13T00:34:21.750Z,6.61
2019-01-13T00:37:25.778Z,6.67
2019-01-13T00:40:32.087Z,6.68
2019-01-13T00:43:36.020Z,6.72
2019-01-13T00:46:40.030Z,6.69
2019-01-13T00:49:43.880Z,6.68
2019-01-13T00:52:47.893Z,6.66
2019-01-13T00:55:51.829Z,6.67
2019-01-13T00:58:55.981Z,6.65
2019-01-13T01:01:59.978Z,6.59
2019-01-13T01:05:04.546Z,6.52
2019-01-13T01:08:09.299Z,6.47
2019-01-13T01:11:14.515Z,6.45
2019-01-13T01:14:18.530Z,6.56
2019-01-13T01:17:22.453Z,6.54
2019-01-13T01:20:26.377Z,6.48
2019-01-13T01:23:31.600Z,6.44
2019-01-13T01:26:37.561Z,6.43
2019-01-13T01:29:41.503Z,6.45
2019-01-13T01:32:46.625Z,6.43
2019-01-13T01:35:52.166Z,6.43
2019-01-13T01:38:56.032Z,6.55
2019-01-13T01:41:59.867Z,6.49
2019-01-13T01:45:04.675Z,6.45
2019-01-13T01:48:08.609Z,6.43
2019-01-13T01:51:12.437Z,6.39
2019-01-13T01:54:16.307Z,6.38
2019-01-13T01:57:20.223Z,6.38
2019-01-13T02:00:26.538Z,6.43
2019-01-13T02:03:30.558Z,6.34
2019-01-13T02:06:34.543Z,6.30
2019-01-13T02:09:38.476Z,6.35
2019-01-13T02:12:42.470Z,6.31
2019-01-13T02:15:46.727Z,6.33
2019-01-13T02:18:50.719Z,6.30
2019-01-13T02:21:54.652Z,6.31
2019-01-13T02:24:58.493Z,6.27
2019-01-13T02:28:02.484Z,6.31
2019-01-13T02:31:06.421Z,6.25
2019-01-13T02:34:10.332Z,6.25
2019-01-13T02:37:14.273Z,6.22
2019-01-13T02:40:19.519Z,6.30
2019-01-13T02:43:23.362Z,6.25
2019-01-13T02:46:27.310Z,6.27
2019-01-13T02:49:33.394Z,6.28
2019-01-13T02:52:37.311Z,6.30
2019-01-13T02:55:41.204Z,6.33
2019-01-13T02:58:45.547Z,6.37
2019-01-13T03:01:49.499Z,6.45
2019-01-13T03:04:53.749Z,6.50
2019-01-13T03:07:57.742Z,6.52
2019-01-13T03:11:01.760Z,6.59
2019-01-13T03:14:06.147Z,6.61
2019-01-13T03:17:10.150Z,6.62
2019-01-13T03:20:14.656Z,6.66
2019-01-13T03:23:20.955Z,6.70
2019-01-13T03:26:28.592Z,6.75
2019-01-13T03:29:32.518Z,6.77
2019-01-13T03:32:36.375Z,6.84
2019-01-13T03:35:40.211Z,6.80
2019-01-13T03:38:44.045Z,6.84
2019-01-13T03:41:48.194Z,6.83
2019-01-13T03:44:52.131Z,6.84
2019-01-13T03:47:56.056Z,6.88
2019-01-13T03:50:59.966Z,6.87
2019-01-13T03:54:04.056Z,6.96
2019-01-13T03:57:08.381Z,7.04
2019-01-13T04:00:31.505Z,6.97
2019-01-13T04:03:35.502Z,6.99
2019-01-13T04:06:41.539Z,7.01
2019-01-13T04:09:45.385Z,7.01
2019-01-13T04:12:50.856Z,7.05
2019-01-13T04:16:04.099Z,7.07
2019-01-13T04:19:07.954Z,7.03
2019-01-13T04:22:11.958Z,7.07
2019-01-13T04:25:15.820Z,7.08
2019-01-13T04:28:21.926Z,7.10
2019-01-13T04:31:29.554Z,7.10
2019-01-13T04:34:33.469Z,7.10
2019-01-13T04:37:39.789Z,7.07
2019-01-13T04:40:43.695Z,7.17
2019-01-13T04:43:47.609Z,7.04
2019-01-13T04:46:51.529Z,6.99
2019-01-13T04:49:55.447Z,7.00
2019-01-13T04:52:59.289Z,6.89
2019-01-13T04:56:03.297Z,6.83
2019-01-13T04:59:07.154Z,6.88
2019-01-13T05:02:11.475Z,6.78
2019-01-13T05:05:15.525Z,6.76
2019-01-13T05:08:19.514Z,6.75
2019-01-13T05:11:23.462Z,6.77
2019-01-13T05:14:27.298Z,6.76
2019-01-13T05:17:31.145Z,6.72
2019-01-13T05:20:35.012Z,6.70
2019-01-13T05:23:38.859Z,6.66
2019-01-13T05:26:42.722Z,6.64
2019-01-13T05:29:46.653Z,6.59
2019-01-13T05:32:50.773Z,6.62
2019-01-13T05:35:54.643Z,6.56
2019-01-13T05:38:58.486Z,6.53
2019-01-13T05:42:02.320Z,6.54
2019-01-13T05:45:07.215Z,6.57
2019-01-13T05:48:11.201Z,6.53
2019-01-13T05:51:15.766Z,6.52
2019-01-13T05:54:19.628Z,6.54
2019-01-13T05:57:23.550Z,6.54
2019-01-13T06:00:30.739Z,6.56
2019-01-13T06:03:37.004Z,6.56
2019-01-13T06:06:41.024Z,6.57
2019-01-13T06:09:45.034Z,6.72
2019-01-13T06:12:49.148Z,6.65
2019-01-13T06:15:53.076Z,6.63
2019-01-13T06:18:57.042Z,6.62
2019-01-13T06:22:01.020Z,6.64
2019-01-13T06:25:05.537Z,6.69
2019-01-13T06:28:09.471Z,6.66
2019-01-13T06:31:13.478Z,6.68
2019-01-13T06:34:17.925Z,6.68
2019-01-13T06:37:21.771Z,6.85
2019-01-13T06:40:27.893Z,6.73
2019-01-13T06:43:31.786Z,6.73
2019-01-13T06:46:35.703Z,6.75
2019-01-13T06:49:40.146Z,6.89
2019-01-13T06:52:44.250Z,6.89
2019-01-13T06:55:50.261Z,6.85
2019-01-13T06:58:54.086Z,6.96
2019-01-13T07:02:03.513Z,6.94
2019-01-13T07:05:06.703Z,6.93
2019-01-13T07:08:10.535Z,7.01
2019-01-13T07:11:14.451Z,6.97
2019-01-13T07:14:18.389Z,6.97
2019-01-13T07:17:22.333Z,7.02
2019-01-13T07:20:26.238Z,7.02
2019-01-13T07:23:30.174Z,7.16
2019-01-13T07:26:34.091Z,7.08
2019-01-13T07:29:37.929Z,7.08
2019-01-13T07:32:41.843Z,7.10
2019-01-13T07:35:45.763Z,7.12
2019-01-13T07:38:49.598Z,7.13
2019-01-13T07:41:53.450Z,7.18
2019-01-13T07:44:57.409Z,7.18
2019-01-13T07:48:01.249Z,7.16
2019-01-13T07:51:05.279Z,7.17
2019-01-13T07:54:09.233Z,7.30
2019-01-13T07:57:13.130Z,7.17
2019-01-13T08:00:22.382Z,7.23
2019-01-13T08:03:27.489Z,7.17
2019-01-13T08:06:31.424Z,7.16
2019-01-13T08:09:35.269Z,7.16
2019-01-13T08:12:39.111Z,7.14
2019-01-13T08:15:44.317Z,7.18
2019-01-13T08:18:48.167Z,7.21
2019-01-13T08:21:52.148Z,7.25
2019-01-13T08:24:56.037Z,7.27
2019-01-13T08:28:02.094Z,7.33
2019-01-13T08:31:06.154Z,7.30
2019-01-13T08:34:13.510Z,7.34
2019-01-13T08:37:17.401Z,7.33
2019-01-13T08:40:22.943Z,7.39
2019-01-13T08:43:26.960Z,7.48
2019-01-13T08:46:30.814Z,7.52
2019-01-13T08:49:34.999Z,7.62
2019-01-13T08:52:38.848Z,7.65
2019-01-13T08:55:42.843Z,7.72
2019-01-13T08:58:46.695Z,7.83
2019-01-13T09:01:50.544Z,7.98
2019-01-13T09:04:55.990Z,7.93
2019-01-13T09:07:59.974Z,7.93
2019-01-13T09:11:03.894Z,7.95
2019-01-13T09:14:07.812Z,7.95
2019-01-13T09:17:11.798Z,8.14
2019-01-13T09:20:27.156Z,8.08
2019-01-13T09:23:31.078Z,8.04
2019-01-13T09:26:35.101Z,8.05
2019-01-13T09:29:42.520Z,8.03
2019-01-13T09:32:44.880Z,8.07
2019-01-13T09:35:48.971Z,8.07
2019-01-13T09:38:52.953Z,8.06
2019-01-13T09:41:56.879Z,8.07
2019-01-13T09:45:00.826Z,8.05
2019-01-13T09:48:05.024Z,8.04
2019-01-13T09:51:08.969Z,8.14
2019-01-13T09:54:12.921Z,8.10
2019-01-13T09:57:18.727Z,8.10
2019-01-13T10:00:33.725Z,8.13
2019-01-13T10:03:37.746Z,8.11
2019-01-13T10:06:41.598Z,8.13
2019-01-13T10:09:45.555Z,8.29
2019-01-13T10:12:49.523Z,8.19
2019-01-13T10:16:00.475Z,8.17
2019-01-13T10:19:04.913Z,8.17
2019-01-13T10:22:08.866Z,8.17
2019-01-13T10:25:13.698Z,8.18
2019-01-13T10:28:17.701Z,8.20
2019-01-13T10:31:21.704Z,8.20
2019-01-13T10:34:28.114Z,8.20
2019-01-13T10:37:32.141Z,8.19
2019-01-13T10:40:36.061Z,8.19
2019-01-13T10:43:40.064Z,8.17
2019-01-13T10:46:44.451Z,8.22
2019-01-13T10:49:50.190Z,8.22
2019-01-13T10:52:56.366Z,8.20
2019-01-13T10:56:05.535Z,8.23
2019-01-13T10:59:12.659Z,8.26
2019-01-13T11:02:16.589Z,8.30
2019-01-13T11:05:22.360Z,8.34
2019-01-13T11:08:26.719Z,8.34
2019-01-13T11:11:30.710Z,8.39
2019-01-13T11:14:34.660Z,8.38
2019-01-13T11:17:38.680Z,8.42
2019-01-13T11:20:42.537Z,8.45
2019-01-13T11:23:49.983Z,8.51
2019-01-13T11:26:53.943Z,8.47
2019-01-13T11:29:57.806Z,8.51
2019-01-13T11:33:09.101Z,8.54
2019-01-13T11:36:10.863Z,8.57
2019-01-13T11:39:15.249Z,8.60
2019-01-13T11:42:19.288Z,8.60
2019-01-13T11:45:23.522Z,8.56
2019-01-13T11:48:27.394Z,8.56
2019-01-13T11:51:31.410Z,8.46
2019-01-13T11:54:35.289Z,8.47
2019-01-13T11:57:39.942Z,8.43
2019-01-13T12:00:47.538Z,8.42
2019-01-13T12:03:51.495Z,8.45
2019-01-13T12:06:55.447Z,8.52
2019-01-13T12:09:59.420Z,8.54
2019-01-13T12:13:06.088Z,8.61
2019-01-13T12:16:10.060Z,8.60
2019-01-13T12:19:13.936Z,8.58
2019-01-13T12:22:20.036Z,8.59
2019-01-13T12:25:24.648Z,8.65
2019-01-13T12:28:28.816Z,8.67
2019-01-13T12:31:35.808Z,8.74
2019-01-13T12:34:39.827Z,8.79
2019-01-13T12:37:43.839Z,8.84
2019-01-13T12:40:47.777Z,8.76
2019-01-13T12:43:51.642Z,8.70
2019-01-13T12:46:55.510Z,8.62
2019-01-13T12:49:59.539Z,8.59
2019-01-13T12:53:03.572Z,8.46
2019-01-13T12:56:07.528Z,8.42
2019-01-13T12:59:11.399Z,8.36
2019-01-13T13:02:15.654Z,8.30
2019-01-13T13:05:19.693Z,8.22
2019-01-13T13:08:23.639Z,8.05
2019-01-13T13:11:27.613Z,7.91
2019-01-13T13:14:33.991Z,7.71
2019-01-13T13:17:38.534Z,7.63
2019-01-13T13:20:42.476Z,7.43
2019-01-13T13:23:46.379Z,7.26
2019-01-13T13:26:50.326Z,7.13
2019-01-13T13:29:54.161Z,7.00
2019-01-13T13:33:01.421Z,6.87
2019-01-13T13:36:07.314Z,6.79
2019-01-13T13:39:14.412Z,6.74
2019-01-13T13:42:21.492Z,6.68
2019-01-13T13:45:25.520Z,6.64
2019-01-13T13:48:29.549Z,6.60
2019-01-13T13:51:33.458Z,6.57
2019-01-13T13:54:37.467Z,6.58
2019-01-13T13:57:41.475Z,6.57
2019-01-13T14:00:46.158Z,6.55
2019-01-13T14:03:50.107Z,6.54
2019-01-13T14:06:54.003Z,6.55
2019-01-13T14:09:57.940Z,6.57
2019-01-13T14:13:01.989Z,6.65
2019-01-13T14:16:06.049Z,6.65
2019-01-13T14:19:10.031Z,6.68
2019-01-13T14:22:13.932Z,6.79
2019-01-13T14:25:21.116Z,6.90
2019-01-13T14:28:25.171Z,6.93
2019-01-13T14:31:29.201Z,7.01
2019-01-13T14:34:33.144Z,7.07
2019-01-13T14:37:37.071Z,7.12
2019-01-13T14:40:42.590Z,7.18
2019-01-13T14:43:46.518Z,7.25
2019-01-13T14:46:50.415Z,7.28
2019-01-13T14:49:54.271Z,7.30
2019-01-13T14:52:58.293Z,7.32
2019-01-13T14:56:02.366Z,7.33
2019-01-13T14:59:06.712Z,7.35
2019-01-13T15:02:10.571Z,7.33
2019-01-13T15:05:14.652Z,7.33
2019-01-13T15:08:18.701Z,7.32
2019-01-13T15:11:22.610Z,7.27
2019-01-13T15:14:28.379Z,7.28
2019-01-13T15:17:35.077Z,7.27
2019-01-13T15:20:40.609Z,7.28
2019-01-13T15:23:44.649Z,7.31
2019-01-13T15:26:50.722Z,7.34
2019-01-13T15:29:56.616Z,7.37
2019-01-13T15:33:00.641Z,7.40
2019-01-13T15:36:06.559Z,7.45
2019-01-13T15:39:10.511Z,7.40
2019-01-13T15:42:14.751Z,7.45
2019-01-13T15:45:18.984Z,7.46
2019-01-13T15:48:22.955Z,7.46
2019-01-13T15:51:26.990Z,7.46
2019-01-13T15:54:30.979Z,7.46
2019-01-13T15:57:35.028Z,7.47
2019-01-13T16:00:39.517Z,7.45
2019-01-13T16:03:43.438Z,7.40
2019-01-13T16:06:49.412Z,7.40
2019-01-13T16:09:53.355Z,7.38
2019-01-13T16:12:58.057Z,7.36
2019-01-13T16:16:04.532Z,7.33
2019-01-13T16:19:10.750Z,7.35
2019-01-13T16:22:14.980Z,7.31
2019-01-13T16:25:19.016Z,7.32
2019-01-13T16:28:22.975Z,7.31
2019-01-13T16:31:26.927Z,7.36
2019-01-13T16:34:30.868Z,7.33
2019-01-13T16:37:34.797Z,7.31
2019-01-13T16:40:38.806Z,7.26
2019-01-13T16:43:44.154Z,7.26
2019-01-13T16:46:48.084Z,7.24
2019-01-13T16:49:52.063Z,7.22
2019-01-13T16:52:57.430Z,7.23
2019-01-13T16:56:01.398Z,7.25
2019-01-13T16:59:05.643Z,7.24
2019-01-13T17:02:09.582Z,7.33
2019-01-13T17:05:15.107Z,7.22
2019-01-13T17:08:19.325Z,7.12
2019-01-13T17:11:26.141Z,7.11
2019-01-13T17:14:30.374Z,7.14
2019-01-13T17:17:37.392Z,7.22
2019-01-13T17:20:41.374Z,7.22
2019-01-13T17:23:45.306Z,7.22
2019-01-13T17:26:49.371Z,7.24
2019-01-13T17:29:53.366Z,7.19
2019-01-13T17:32:57.386Z,7.09
2019-01-13T17:36:04.136Z,6.96
2019-01-13T17:39:09.600Z,6.83
2019-01-13T17:42:13.676Z,6.69
2019-01-13T17:45:18.829Z,6.67
2019-01-13T17:48:22.794Z,6.69
2019-01-13T17:51:28.890Z,6.75
2019-01-13T17:54:32.913Z,6.82
2019-01-13T17:57:37.086Z,6.95
2019-01-13T18:01:12.494Z,6.88
2019-01-13T18:04:16.662Z,6.79
2019-01-13T18:07:23.550Z,6.76
2019-01-13T18:10:27.571Z,6.72
2019-01-13T18:13:31.527Z,6.72
2019-01-13T18:16:35.466Z,6.71
2019-01-13T18:19:39.343Z,6.68
2019-01-13T18:22:47.100Z,6.62
2019-01-13T18:25:51.132Z,6.56
2019-01-13T18:28:55.206Z,6.58
2019-01-13T18:31:59.130Z,6.48
2019-01-13T18:35:03.211Z,6.57
2019-01-13T18:38:09.210Z,6.64
2019-01-13T18:41:17.307Z,6.66
2019-01-13T18:44:21.180Z,6.62
2019-01-13T18:47:25.161Z,6.59
2019-01-13T18:50:29.078Z,6.56
2019-01-13T18:53:33.106Z,6.46
2019-01-13T18:56:37.147Z,6.38
2019-01-13T18:59:41.034Z,6.35
2019-01-13T19:02:45.465Z,6.30
2019-01-13T19:05:51.222Z,6.28
2019-01-13T19:08:58.279Z,6.24
2019-01-13T19:12:04.608Z,6.19
2019-01-13T19:15:09.758Z,6.16
2019-01-13T19:18:17.481Z,6.03
2019-01-13T19:21:21.694Z,5.99
2019-01-13T19:24:28.613Z,5.97
2019-01-13T19:27:32.655Z,5.89
2019-01-13T19:30:38.760Z,5.83
2019-01-13T19:33:44.656Z,5.77
2019-01-13T19:36:48.758Z,5.63
2019-01-13T19:39:52.710Z,5.55
2019-01-13T19:42:56.764Z,5.53
2019-01-13T19:46:00.808Z,5.51
2019-01-13T19:49:12.098Z,5.47
2019-01-13T19:52:16.268Z,5.37
2019-01-13T19:55:20.639Z,5.49
2019-01-13T19:58:24.840Z,5.30
2019-01-13T20:01:29.093Z,5.25
2019-01-13T20:04:33.282Z,5.28
2019-01-13T20:07:38.501Z,5.21
2019-01-13T20:10:42.583Z,5.18
2019-01-13T20:13:46.702Z,5.12
2019-01-13T20:16:50.823Z,5.17
2019-01-13T20:19:54.966Z,5.23
2019-01-13T20:22:59.077Z,5.16
2019-01-13T20:26:03.250Z,5.15
2019-01-13T20:29:07.401Z,5.10
2019-01-13T20:32:11.761Z,5.16
2019-01-13T20:35:19.614Z,5.09
2019-01-13T20:38:26.899Z,5.08
2019-01-13T20:41:33.738Z,5.02
2019-01-13T20:44:37.664Z,4.98
2019-01-13T20:47:45.646Z,5.07
2019-01-13T20:50:49.820Z,4.99
2019-01-13T20:53:53.942Z,4.88
2019-01-13T20:56:58.125Z,4.93
2019-01-13T21:00:04.374Z,4.82
2019-01-13T21:03:09.123Z,4.92
2019-01-13T21:06:13.172Z,4.79
2019-01-13T21:09:20.055Z,4.80
2019-01-13T21:12:28.735Z,4.87
2019-01-13T21:15:37.219Z,4.74
2019-01-13T21:18:49.483Z,4.68
2019-01-13T21:21:53.523Z,4.73
2019-01-13T21:24:59.644Z,4.70
2019-01-13T21:28:03.977Z,4.85
2019-01-13T21:31:14.024Z,4.86
2019-01-13T21:34:18.052Z,4.72
2019-01-13T21:37:22.008Z,4.77
2019-01-13T21:40:25.958Z,4.79
2019-01-13T21:43:30.022Z,4.86
2019-01-13T21:46:36.979Z,4.82
2019-01-13T21:49:40.922Z,4.71
2019-01-13T21:52:47.482Z,4.88
2019-01-13T21:55:51.450Z,4.67
2019-01-13T21:58:55.450Z,4.61
2019-01-13T22:01:59.392Z,4.68
2019-01-13T22:05:03.598Z,4.50
2019-01-13T22:08:07.624Z,4.42
2019-01-13T22:11:11.829Z,4.55
2019-01-13T22:14:15.688Z,4.34
2019-01-13T22:17:19.549Z,4.26
2019-01-13T22:20:24.179Z,4.21
2019-01-13T22:23:28.119Z,4.25
2019-01-13T22:26:32.424Z,4.17
2019-01-13T22:29:38.633Z,4.18
2019-01-13T22:32:42.571Z,4.09
2019-01-13T22:35:48.314Z,4.14
2019-01-13T22:38:52.121Z,4.15
2019-01-13T22:41:56.131Z,4.04
2019-01-13T22:44:59.995Z,3.94
2019-01-13T22:48:03.856Z,3.95
2019-01-13T22:51:07.827Z,3.95
2019-01-13T22:54:11.771Z,4.01
2019-01-13T22:57:15.679Z,4.29
2019-01-13T23:00:54.660Z,4.09
2019-01-13T23:04:05.274Z,4.16
2019-01-13T23:07:09.289Z,4.01
2019-01-13T23:10:13.233Z,3.97
2019-01-13T23:13:17.577Z,4.02
2019-01-13T23:16:26.103Z,3.97
2019-01-13T23:19:30.125Z,4.00
2019-01-13T23:22:34.141Z,4.21
2019-01-13T23:25:37.986Z,4.18
2019-01-13T23:28:41.990Z,4.14
2019-01-13T23:31:46.032Z,4.20
2019-01-13T23:34:50.018Z,3.99
2019-01-13T23:37:53.984Z,3.95
2019-01-13T23:40:57.922Z,4.06
2019-01-13T23:44:01.811Z,3.87
2019-01-13T23:47:05.763Z,3.82
2019-01-13T23:50:09.858Z,3.94
2019-01-13T23:53:13.852Z,3.91
2019-01-13T23:56:19.631Z,3.87
2019-01-13T23:59:24.861Z,3.86
